sensor_id;sensor_type;location;lat;lon;timestamp;P1;durP1;ratioP1;P2;durP2;ratioP2
51358;SDS011;37448;51.588;7.248;2022-11-02T00:00:31;12.82;;;1.80;;
51358;SDS011;37448;51.588;7.248;2022-11-02T00:03:02;11.10;;;1.88;;
51358;SDS011;37448;51.588;7.248;2022-11-02T00:05:33;12.95;;;2.10;;
51358;SDS011;37448;51.588;7.248;2022-11-02T00:08:03;13.75;;;2.33;;
51358;SDS011;37448;51.588;7.248;2022-11-02T00:10:34;10.35;;;2.13;;
51358;SDS011;37448;51.588;7.248;2022-11-02T00:13:04;11.60;;;2.00;;
51358;SDS011;37448;51.588;7.248;2022-11-02T00:15:35;10.55;;;1.67;;
51358;SDS011;37448;51.588;7.248;2022-11-02T00:18:09;9.75;;;2.38;;
51358;SDS011;37448;51.588;7.248;2022-11-02T00:20:41;10.35;;;2.28;;
51358;SDS011;37448;51.588;7.248;2022-11-02T00:23:12;9.85;;;1.52;;
51358;SDS011;37448;51.588;7.248;2022-11-02T00:25:44;11.27;;;2.35;;
51358;SDS011;37448;51.588;7.248;2022-11-02T00:28:17;14.10;;;2.60;;
51358;SDS011;37448;51.588;7.248;2022-11-02T00:30:48;14.18;;;2.40;;
51358;SDS011;37448;51.588;7.248;2022-11-02T00:33:18;9.13;;;1.55;;
51358;SDS011;37448;51.588;7.248;2022-11-02T00:35:48;12.45;;;2.45;;
51358;SDS011;37448;51.588;7.248;2022-11-02T00:38:19;14.57;;;2.10;;
51358;SDS011;37448;51.588;7.248;2022-11-02T00:40:49;12.80;;;2.08;;
51358;SDS011;37448;51.588;7.248;2022-11-02T00:43:20;13.73;;;2.28;;
51358;SDS011;37448;51.588;7.248;2022-11-02T00:45:50;10.25;;;1.90;;
51358;SDS011;37448;51.588;7.248;2022-11-02T00:48:20;13.98;;;2.30;;
51358;SDS011;37448;51.588;7.248;2022-11-02T00:50:51;11.73;;;1.58;;
51358;SDS011;37448;51.588;7.248;2022-11-02T00:53:21;11.52;;;1.90;;
51358;SDS011;37448;51.588;7.248;2022-11-02T00:55:52;11.48;;;2.25;;
51358;SDS011;37448;51.588;7.248;2022-11-02T00:58:22;9.63;;;1.80;;
51358;SDS011;37448;51.588;7.248;2022-11-02T01:00:53;15.38;;;2.45;;
51358;SDS011;37448;51.588;7.248;2022-11-02T01:03:25;9.93;;;1.90;;
51358;SDS011;37448;51.588;7.248;2022-11-02T01:05:55;12.23;;;2.25;;
51358;SDS011;37448;51.588;7.248;2022-11-02T01:08:26;15.77;;;2.28;;
51358;SDS011;37448;51.588;7.248;2022-11-02T01:10:56;13.23;;;1.42;;
51358;SDS011;37448;51.588;7.248;2022-11-02T01:13:38;11.85;;;2.25;;
51358;SDS011;37448;51.588;7.248;2022-11-02T01:16:09;9.82;;;1.55;;
51358;SDS011;37448;51.588;7.248;2022-11-02T01:18:40;12.43;;;1.95;;
51358;SDS011;37448;51.588;7.248;2022-11-02T01:21:11;14.20;;;2.85;;
51358;SDS011;37448;51.588;7.248;2022-11-02T01:23:41;9.77;;;1.40;;
51358;SDS011;37448;51.588;7.248;2022-11-02T01:26:11;9.85;;;2.03;;
51358;SDS011;37448;51.588;7.248;2022-11-02T01:28:42;10.90;;;2.05;;
51358;SDS011;37448;51.588;7.248;2022-11-02T01:31:12;10.02;;;1.52;;
51358;SDS011;37448;51.588;7.248;2022-11-02T01:33:43;9.93;;;1.95;;
51358;SDS011;37448;51.588;7.248;2022-11-02T01:36:15;12.27;;;2.90;;
51358;SDS011;37448;51.588;7.248;2022-11-02T01:38:50;9.80;;;2.33;;
51358;SDS011;37448;51.588;7.248;2022-11-02T01:41:20;13.73;;;1.80;;
51358;SDS011;37448;51.588;7.248;2022-11-02T01:43:52;11.25;;;1.73;;
51358;SDS011;37448;51.588;7.248;2022-11-02T01:46:27;10.60;;;2.00;;
51358;SDS011;37448;51.588;7.248;2022-11-02T01:49:14;9.93;;;1.88;;
51358;SDS011;37448;51.588;7.248;2022-11-02T01:51:48;13.00;;;1.73;;
51358;SDS011;37448;51.588;7.248;2022-11-02T01:54:32;10.75;;;1.90;;
51358;SDS011;37448;51.588;7.248;2022-11-02T01:57:08;13.57;;;3.70;;
51358;SDS011;37448;51.588;7.248;2022-11-02T01:59:45;14.35;;;2.25;;
51358;SDS011;37448;51.588;7.248;2022-11-02T02:02:23;10.02;;;1.73;;
51358;SDS011;37448;51.588;7.248;2022-11-02T02:04:58;11.15;;;2.90;;
51358;SDS011;37448;51.588;7.248;2022-11-02T02:07:36;15.25;;;2.97;;
51358;SDS011;37448;51.588;7.248;2022-11-02T02:10:08;9.23;;;1.70;;
51358;SDS011;37448;51.588;7.248;2022-11-02T02:12:38;14.05;;;2.45;;
51358;SDS011;37448;51.588;7.248;2022-11-02T02:15:10;8.13;;;1.92;;
51358;SDS011;37448;51.588;7.248;2022-11-02T02:31:46;13.98;;;1.92;;
51358;SDS011;37448;51.588;7.248;2022-11-02T02:34:36;12.65;;;1.80;;
51358;SDS011;37448;51.588;7.248;2022-11-02T02:37:20;8.60;;;1.60;;
51358;SDS011;37448;51.588;7.248;2022-11-02T02:40:01;16.20;;;1.90;;
51358;SDS011;37448;51.588;7.248;2022-11-02T02:42:43;13.40;;;1.73;;
51358;SDS011;37448;51.588;7.248;2022-11-02T02:45:59;8.77;;;1.65;;
51358;SDS011;37448;51.588;7.248;2022-11-02T02:48:41;9.57;;;1.90;;
51358;SDS011;37448;51.588;7.248;2022-11-02T02:51:20;9.90;;;1.65;;
51358;SDS011;37448;51.588;7.248;2022-11-02T02:54:29;13.15;;;2.13;;
51358;SDS011;37448;51.588;7.248;2022-11-02T02:56:55;9.25;;;1.55;;
51358;SDS011;37448;51.588;7.248;2022-11-02T02:59:36;17.00;;;2.75;;
51358;SDS011;37448;51.588;7.248;2022-11-02T03:02:20;15.98;;;2.13;;
51358;SDS011;37448;51.588;7.248;2022-11-02T03:07:32;12.83;;;2.17;;
51358;SDS011;37448;51.588;7.248;2022-11-02T03:10:11;9.05;;;2.35;;
51358;SDS011;37448;51.588;7.248;2022-11-02T03:15:47;19.15;;;3.40;;
51358;SDS011;37448;51.588;7.248;2022-11-02T03:24:15;11.82;;;1.85;;
51358;SDS011;37448;51.588;7.248;2022-11-02T03:27:01;18.08;;;2.47;;
51358;SDS011;37448;51.588;7.248;2022-11-02T03:29:41;13.32;;;3.00;;
51358;SDS011;37448;51.588;7.248;2022-11-02T03:32:24;14.10;;;3.03;;
51358;SDS011;37448;51.588;7.248;2022-11-02T03:35:10;15.23;;;1.98;;
51358;SDS011;37448;51.588;7.248;2022-11-02T03:37:54;9.95;;;1.65;;
51358;SDS011;37448;51.588;7.248;2022-11-02T03:40:34;16.15;;;2.33;;
51358;SDS011;37448;51.588;7.248;2022-11-02T03:43:09;11.23;;;2.28;;
51358;SDS011;37448;51.588;7.248;2022-11-02T03:45:42;10.52;;;1.75;;
51358;SDS011;37448;51.588;7.248;2022-11-02T03:48:16;10.57;;;1.58;;
51358;SDS011;37448;51.588;7.248;2022-11-02T03:50:49;12.77;;;1.63;;
51358;SDS011;37448;51.588;7.248;2022-11-02T03:55:59;9.18;;;2.08;;
51358;SDS011;37448;51.588;7.248;2022-11-02T03:58:35;13.35;;;2.20;;
51358;SDS011;37448;51.588;7.248;2022-11-02T04:01:05;11.30;;;1.83;;
51358;SDS011;37448;51.588;7.248;2022-11-02T04:03:40;14.15;;;2.20;;
51358;SDS011;37448;51.588;7.248;2022-11-02T04:06:14;11.98;;;1.92;;
51358;SDS011;37448;51.588;7.248;2022-11-02T04:08:45;10.10;;;1.55;;
51358;SDS011;37448;51.588;7.248;2022-11-02T04:11:17;4.55;;;1.33;;
51358;SDS011;37448;51.588;7.248;2022-11-02T04:14:07;9.73;;;1.70;;
51358;SDS011;37448;51.588;7.248;2022-11-02T04:16:56;12.68;;;2.55;;
51358;SDS011;37448;51.588;7.248;2022-11-02T04:19:45;7.40;;;1.38;;
51358;SDS011;37448;51.588;7.248;2022-11-02T04:22:16;12.23;;;1.65;;
51358;SDS011;37448;51.588;7.248;2022-11-02T04:25:05;9.88;;;1.58;;
51358;SDS011;37448;51.588;7.248;2022-11-02T04:27:48;9.23;;;1.63;;
51358;SDS011;37448;51.588;7.248;2022-11-02T04:30:20;9.52;;;1.95;;
51358;SDS011;37448;51.588;7.248;2022-11-02T04:32:52;9.00;;;1.85;;
51358;SDS011;37448;51.588;7.248;2022-11-02T04:35:40;9.50;;;1.90;;
51358;SDS011;37448;51.588;7.248;2022-11-02T04:38:11;9.82;;;1.52;;
51358;SDS011;37448;51.588;7.248;2022-11-02T04:41:00;6.88;;;1.48;;
51358;SDS011;37448;51.588;7.248;2022-11-02T04:43:48;12.38;;;1.90;;
51358;SDS011;37448;51.588;7.248;2022-11-02T04:46:19;7.13;;;1.70;;
51358;SDS011;37448;51.588;7.248;2022-11-02T04:48:51;13.48;;;1.75;;
51358;SDS011;37448;51.588;7.248;2022-11-02T04:51:22;11.18;;;1.60;;
51358;SDS011;37448;51.588;7.248;2022-11-02T04:53:54;12.60;;;2.30;;
51358;SDS011;37448;51.588;7.248;2022-11-02T04:56:26;12.20;;;2.75;;
51358;SDS011;37448;51.588;7.248;2022-11-02T04:58:58;7.60;;;1.58;;
51358;SDS011;37448;51.588;7.248;2022-11-02T05:01:29;8.13;;;1.58;;
51358;SDS011;37448;51.588;7.248;2022-11-02T05:03:59;8.50;;;1.40;;
51358;SDS011;37448;51.588;7.248;2022-11-02T05:06:30;8.27;;;1.30;;
51358;SDS011;37448;51.588;7.248;2022-11-02T05:09:00;8.38;;;2.47;;
51358;SDS011;37448;51.588;7.248;2022-11-02T05:11:30;8.75;;;1.60;;
51358;SDS011;37448;51.588;7.248;2022-11-02T05:14:01;14.90;;;1.70;;
51358;SDS011;37448;51.588;7.248;2022-11-02T05:16:31;12.98;;;1.58;;
51358;SDS011;37448;51.588;7.248;2022-11-02T05:19:01;10.45;;;1.98;;
51358;SDS011;37448;51.588;7.248;2022-11-02T05:21:32;10.27;;;1.40;;
51358;SDS011;37448;51.588;7.248;2022-11-02T05:24:02;10.55;;;2.08;;
51358;SDS011;37448;51.588;7.248;2022-11-02T05:26:32;12.10;;;1.70;;
51358;SDS011;37448;51.588;7.248;2022-11-02T05:29:03;13.73;;;1.80;;
51358;SDS011;37448;51.588;7.248;2022-11-02T05:31:33;14.50;;;3.20;;
51358;SDS011;37448;51.588;7.248;2022-11-02T05:34:04;12.00;;;1.88;;
51358;SDS011;37448;51.588;7.248;2022-11-02T05:36:34;9.48;;;2.17;;
51358;SDS011;37448;51.588;7.248;2022-11-02T05:39:04;9.13;;;2.03;;
51358;SDS011;37448;51.588;7.248;2022-11-02T05:41:35;9.43;;;1.70;;
51358;SDS011;37448;51.588;7.248;2022-11-02T05:44:05;12.75;;;3.47;;
51358;SDS011;37448;51.588;7.248;2022-11-02T05:46:35;13.43;;;2.28;;
51358;SDS011;37448;51.588;7.248;2022-11-02T05:49:06;10.35;;;3.05;;
51358;SDS011;37448;51.588;7.248;2022-11-02T05:51:36;15.68;;;3.15;;
51358;SDS011;37448;51.588;7.248;2022-11-02T05:54:06;18.73;;;1.90;;
51358;SDS011;37448;51.588;7.248;2022-11-02T05:56:37;12.73;;;3.15;;
51358;SDS011;37448;51.588;7.248;2022-11-02T05:59:07;8.60;;;1.40;;
51358;SDS011;37448;51.588;7.248;2022-11-02T06:01:38;12.25;;;1.80;;
51358;SDS011;37448;51.588;7.248;2022-11-02T06:04:08;9.35;;;1.35;;
51358;SDS011;37448;51.588;7.248;2022-11-02T06:06:38;11.57;;;1.77;;
51358;SDS011;37448;51.588;7.248;2022-11-02T06:09:09;10.23;;;2.42;;
51358;SDS011;37448;51.588;7.248;2022-11-02T06:11:39;11.45;;;1.65;;
51358;SDS011;37448;51.588;7.248;2022-11-02T06:14:09;9.75;;;1.92;;
51358;SDS011;37448;51.588;7.248;2022-11-02T06:16:40;10.32;;;1.50;;
51358;SDS011;37448;51.588;7.248;2022-11-02T06:19:10;10.23;;;2.47;;
51358;SDS011;37448;51.588;7.248;2022-11-02T06:21:40;13.38;;;2.05;;
51358;SDS011;37448;51.588;7.248;2022-11-02T06:24:11;11.07;;;1.85;;
51358;SDS011;37448;51.588;7.248;2022-11-02T06:26:41;10.05;;;2.05;;
51358;SDS011;37448;51.588;7.248;2022-11-02T06:29:11;9.95;;;2.20;;
51358;SDS011;37448;51.588;7.248;2022-11-02T06:31:42;17.60;;;2.28;;
51358;SDS011;37448;51.588;7.248;2022-11-02T06:34:12;8.43;;;2.08;;
51358;SDS011;37448;51.588;7.248;2022-11-02T06:36:43;12.23;;;1.60;;
51358;SDS011;37448;51.588;7.248;2022-11-02T06:39:13;13.57;;;2.15;;
51358;SDS011;37448;51.588;7.248;2022-11-02T06:41:43;6.28;;;1.13;;
51358;SDS011;37448;51.588;7.248;2022-11-02T06:44:14;12.20;;;2.20;;
51358;SDS011;37448;51.588;7.248;2022-11-02T06:46:44;8.38;;;1.83;;
51358;SDS011;37448;51.588;7.248;2022-11-02T06:49:14;14.20;;;1.90;;
51358;SDS011;37448;51.588;7.248;2022-11-02T06:51:45;15.70;;;2.45;;
51358;SDS011;37448;51.588;7.248;2022-11-02T06:54:15;14.95;;;1.83;;
51358;SDS011;37448;51.588;7.248;2022-11-02T06:56:46;14.10;;;2.25;;
51358;SDS011;37448;51.588;7.248;2022-11-02T06:59:16;10.48;;;2.42;;
51358;SDS011;37448;51.588;7.248;2022-11-02T07:01:46;12.30;;;1.90;;
51358;SDS011;37448;51.588;7.248;2022-11-02T07:04:21;11.32;;;2.20;;
51358;SDS011;37448;51.588;7.248;2022-11-02T07:06:51;12.98;;;1.77;;
51358;SDS011;37448;51.588;7.248;2022-11-02T07:09:22;12.57;;;2.45;;
51358;SDS011;37448;51.588;7.248;2022-11-02T07:11:52;13.07;;;1.73;;
51358;SDS011;37448;51.588;7.248;2022-11-02T07:14:23;10.77;;;2.30;;
51358;SDS011;37448;51.588;7.248;2022-11-02T07:16:53;12.82;;;1.70;;
51358;SDS011;37448;51.588;7.248;2022-11-02T07:19:23;16.40;;;2.17;;
51358;SDS011;37448;51.588;7.248;2022-11-02T07:21:54;11.55;;;2.25;;
51358;SDS011;37448;51.588;7.248;2022-11-02T07:24:24;14.10;;;1.77;;
51358;SDS011;37448;51.588;7.248;2022-11-02T07:26:55;11.13;;;2.00;;
51358;SDS011;37448;51.588;7.248;2022-11-02T07:29:25;11.90;;;1.65;;
51358;SDS011;37448;51.588;7.248;2022-11-02T07:31:55;11.35;;;1.55;;
51358;SDS011;37448;51.588;7.248;2022-11-02T07:34:26;11.95;;;2.28;;
51358;SDS011;37448;51.588;7.248;2022-11-02T07:36:56;8.65;;;1.70;;
51358;SDS011;37448;51.588;7.248;2022-11-02T07:39:26;13.20;;;1.65;;
51358;SDS011;37448;51.588;7.248;2022-11-02T07:41:57;15.70;;;2.85;;
51358;SDS011;37448;51.588;7.248;2022-11-02T07:44:27;11.57;;;1.83;;
51358;SDS011;37448;51.588;7.248;2022-11-02T07:46:59;11.52;;;1.92;;
51358;SDS011;37448;51.588;7.248;2022-11-02T07:49:30;18.27;;;2.55;;
51358;SDS011;37448;51.588;7.248;2022-11-02T07:52:00;17.48;;;2.40;;
51358;SDS011;37448;51.588;7.248;2022-11-02T07:54:31;17.90;;;2.30;;
51358;SDS011;37448;51.588;7.248;2022-11-02T07:57:01;12.77;;;2.97;;
51358;SDS011;37448;51.588;7.248;2022-11-02T07:59:31;9.45;;;1.80;;
51358;SDS011;37448;51.588;7.248;2022-11-02T08:02:02;10.40;;;2.20;;
51358;SDS011;37448;51.588;7.248;2022-11-02T08:04:32;12.05;;;3.05;;
51358;SDS011;37448;51.588;7.248;2022-11-02T08:07:02;11.75;;;2.30;;
51358;SDS011;37448;51.588;7.248;2022-11-02T08:09:33;6.97;;;1.40;;
51358;SDS011;37448;51.588;7.248;2022-11-02T08:12:03;28.42;;;2.60;;
51358;SDS011;37448;51.588;7.248;2022-11-02T08:14:34;8.25;;;2.13;;
51358;SDS011;37448;51.588;7.248;2022-11-02T08:17:04;9.65;;;1.77;;
51358;SDS011;37448;51.588;7.248;2022-11-02T08:19:34;14.18;;;2.60;;
51358;SDS011;37448;51.588;7.248;2022-11-02T08:22:05;9.73;;;2.00;;
51358;SDS011;37448;51.588;7.248;2022-11-02T08:24:35;10.10;;;1.70;;
51358;SDS011;37448;51.588;7.248;2022-11-02T08:27:05;7.25;;;1.70;;
51358;SDS011;37448;51.588;7.248;2022-11-02T08:29:36;9.63;;;2.35;;
51358;SDS011;37448;51.588;7.248;2022-11-02T08:32:07;15.10;;;2.15;;
51358;SDS011;37448;51.588;7.248;2022-11-02T08:34:37;7.00;;;1.80;;
51358;SDS011;37448;51.588;7.248;2022-11-02T08:37:07;10.48;;;2.25;;
51358;SDS011;37448;51.588;7.248;2022-11-02T08:39:38;17.33;;;2.40;;
51358;SDS011;37448;51.588;7.248;2022-11-02T08:42:08;9.30;;;1.30;;
51358;SDS011;37448;51.588;7.248;2022-11-02T08:44:39;11.55;;;1.77;;
51358;SDS011;37448;51.588;7.248;2022-11-02T08:47:09;8.90;;;1.63;;
51358;SDS011;37448;51.588;7.248;2022-11-02T08:49:40;11.13;;;2.20;;
51358;SDS011;37448;51.588;7.248;2022-11-02T08:52:10;17.35;;;2.05;;
51358;SDS011;37448;51.588;7.248;2022-11-02T08:54:41;9.98;;;2.35;;
51358;SDS011;37448;51.588;7.248;2022-11-02T08:57:11;13.52;;;1.80;;
51358;SDS011;37448;51.588;7.248;2022-11-02T08:59:42;8.80;;;2.70;;
51358;SDS011;37448;51.588;7.248;2022-11-02T09:02:12;14.27;;;1.73;;
51358;SDS011;37448;51.588;7.248;2022-11-02T09:04:42;9.00;;;1.85;;
51358;SDS011;37448;51.588;7.248;2022-11-02T09:07:13;8.75;;;1.45;;
51358;SDS011;37448;51.588;7.248;2022-11-02T09:09:43;10.77;;;1.58;;
51358;SDS011;37448;51.588;7.248;2022-11-02T09:12:14;9.00;;;2.38;;
51358;SDS011;37448;51.588;7.248;2022-11-02T09:14:44;9.38;;;1.88;;
51358;SDS011;37448;51.588;7.248;2022-11-02T09:17:14;8.20;;;1.98;;
51358;SDS011;37448;51.588;7.248;2022-11-02T09:19:45;10.68;;;2.08;;
51358;SDS011;37448;51.588;7.248;2022-11-02T09:22:15;14.45;;;1.60;;
51358;SDS011;37448;51.588;7.248;2022-11-02T09:24:45;10.32;;;1.63;;
51358;SDS011;37448;51.588;7.248;2022-11-02T09:27:16;8.95;;;1.75;;
51358;SDS011;37448;51.588;7.248;2022-11-02T09:29:46;6.78;;;1.67;;
51358;SDS011;37448;51.588;7.248;2022-11-02T09:32:16;10.30;;;1.65;;
51358;SDS011;37448;51.588;7.248;2022-11-02T09:34:47;7.25;;;2.03;;
51358;SDS011;37448;51.588;7.248;2022-11-02T09:37:19;7.83;;;1.27;;
51358;SDS011;37448;51.588;7.248;2022-11-02T09:39:49;8.88;;;1.70;;
51358;SDS011;37448;51.588;7.248;2022-11-02T09:45:13;11.20;;;1.40;;
51358;SDS011;37448;51.588;7.248;2022-11-02T09:48:05;8.55;;;1.38;;
51358;SDS011;37448;51.588;7.248;2022-11-02T09:50:48;9.82;;;1.77;;
51358;SDS011;37448;51.588;7.248;2022-11-02T09:53:32;14.40;;;2.53;;
51358;SDS011;37448;51.588;7.248;2022-11-02T09:56:09;11.32;;;1.77;;
51358;SDS011;37448;51.588;7.248;2022-11-02T09:58:43;12.48;;;2.40;;
51358;SDS011;37448;51.588;7.248;2022-11-02T10:01:26;9.80;;;1.55;;
51358;SDS011;37448;51.588;7.248;2022-11-02T10:10:22;9.15;;;2.00;;
51358;SDS011;37448;51.588;7.248;2022-11-02T10:13:26;13.07;;;1.85;;
51358;SDS011;37448;51.588;7.248;2022-11-02T10:19:02;10.77;;;1.98;;
51358;SDS011;37448;51.588;7.248;2022-11-02T10:21:39;8.63;;;1.80;;
51358;SDS011;37448;51.588;7.248;2022-11-02T10:27:03;12.90;;;2.15;;
51358;SDS011;37448;51.588;7.248;2022-11-02T10:29:40;10.55;;;1.83;;
51358;SDS011;37448;51.588;7.248;2022-11-02T10:32:17;10.45;;;1.60;;
51358;SDS011;37448;51.588;7.248;2022-11-02T10:34:48;11.07;;;1.92;;
51358;SDS011;37448;51.588;7.248;2022-11-02T10:43:27;10.50;;;1.70;;
51358;SDS011;37448;51.588;7.248;2022-11-02T10:46:35;7.72;;;1.33;;
51358;SDS011;37448;51.588;7.248;2022-11-02T10:49:11;8.70;;;1.40;;
51358;SDS011;37448;51.588;7.248;2022-11-02T10:51:50;7.32;;;2.20;;
51358;SDS011;37448;51.588;7.248;2022-11-02T10:54:20;10.23;;;1.95;;
51358;SDS011;37448;51.588;7.248;2022-11-02T10:56:51;8.43;;;1.50;;
51358;SDS011;37448;51.588;7.248;2022-11-02T10:59:21;7.47;;;1.30;;
51358;SDS011;37448;51.588;7.248;2022-11-02T11:04:26;10.02;;;1.98;;
51358;SDS011;37448;51.588;7.248;2022-11-02T11:07:15;13.80;;;2.28;;
51358;SDS011;37448;51.588;7.248;2022-11-02T11:09:49;10.80;;;2.53;;
51358;SDS011;37448;51.588;7.248;2022-11-02T11:15:02;9.55;;;1.67;;
51358;SDS011;37448;51.588;7.248;2022-11-02T11:17:36;7.45;;;1.92;;
51358;SDS011;37448;51.588;7.248;2022-11-02T11:20:25;7.25;;;1.65;;
51358;SDS011;37448;51.588;7.248;2022-11-02T11:25:57;12.57;;;2.50;;
51358;SDS011;37448;51.588;7.248;2022-11-02T11:28:31;9.40;;;2.30;;
51358;SDS011;37448;51.588;7.248;2022-11-02T11:33:49;11.50;;;1.77;;
51358;SDS011;37448;51.588;7.248;2022-11-02T11:39:06;7.72;;;1.38;;
51358;SDS011;37448;51.588;7.248;2022-11-02T11:41:57;12.00;;;1.70;;
51358;SDS011;37448;51.588;7.248;2022-11-02T11:44:29;9.82;;;1.40;;
51358;SDS011;37448;51.588;7.248;2022-11-02T11:46:59;11.35;;;1.88;;
51358;SDS011;37448;51.588;7.248;2022-11-02T11:49:31;9.55;;;1.85;;
51358;SDS011;37448;51.588;7.248;2022-11-02T11:52:03;14.70;;;2.00;;
51358;SDS011;37448;51.588;7.248;2022-11-02T11:54:34;7.65;;;1.33;;
51358;SDS011;37448;51.588;7.248;2022-11-02T11:57:26;9.40;;;1.85;;
51358;SDS011;37448;51.588;7.248;2022-11-02T12:00:00;12.00;;;1.52;;
51358;SDS011;37448;51.588;7.248;2022-11-02T12:02:34;8.98;;;1.45;;
51358;SDS011;37448;51.588;7.248;2022-11-02T12:10:19;14.57;;;1.85;;
51358;SDS011;37448;51.588;7.248;2022-11-02T12:18:24;14.85;;;2.22;;
51358;SDS011;37448;51.588;7.248;2022-11-02T12:22:02;6.95;;;1.45;;
51358;SDS011;37448;51.588;7.248;2022-11-02T12:27:42;6.65;;;1.02;;
51358;SDS011;37448;51.588;7.248;2022-11-02T12:30:19;13.80;;;2.22;;
51358;SDS011;37448;51.588;7.248;2022-11-02T12:41:03;11.45;;;1.60;;
51358;SDS011;37448;51.588;7.248;2022-11-02T12:43:41;6.35;;;1.15;;
51358;SDS011;37448;51.588;7.248;2022-11-02T12:46:17;8.63;;;1.65;;
51358;SDS011;37448;51.588;7.248;2022-11-02T12:54:41;10.10;;;1.80;;
51358;SDS011;37448;51.588;7.248;2022-11-02T12:57:18;10.10;;;1.13;;
51358;SDS011;37448;51.588;7.248;2022-11-02T12:59:52;9.55;;;1.77;;
51358;SDS011;37448;51.588;7.248;2022-11-02T13:02:44;11.95;;;1.60;;
51358;SDS011;37448;51.588;7.248;2022-11-02T13:05:23;13.27;;;1.70;;
51358;SDS011;37448;51.588;7.248;2022-11-02T13:08:03;11.18;;;1.50;;
51358;SDS011;37448;51.588;7.248;2022-11-02T13:10:53;13.00;;;1.58;;
51358;SDS011;37448;51.588;7.248;2022-11-02T13:19:35;7.60;;;1.75;;
51358;SDS011;37448;51.588;7.248;2022-11-02T13:22:09;7.50;;;1.75;;
51358;SDS011;37448;51.588;7.248;2022-11-02T13:24:50;7.07;;;1.58;;
51358;SDS011;37448;51.588;7.248;2022-11-02T13:27:35;8.18;;;1.75;;
51358;SDS011;37448;51.588;7.248;2022-11-02T13:30:15;8.10;;;1.50;;
51358;SDS011;37448;51.588;7.248;2022-11-02T13:35:33;6.38;;;1.13;;
51358;SDS011;37448;51.588;7.248;2022-11-02T13:43:51;12.38;;;1.80;;
51358;SDS011;37448;51.588;7.248;2022-11-02T13:49:38;8.82;;;1.77;;
51358;SDS011;37448;51.588;7.248;2022-11-02T13:52:11;9.43;;;1.52;;
51358;SDS011;37448;51.588;7.248;2022-11-02T13:57:31;11.70;;;1.77;;
51358;SDS011;37448;51.588;7.248;2022-11-02T14:00:27;8.98;;;1.70;;
51358;SDS011;37448;51.588;7.248;2022-11-02T14:03:18;10.32;;;1.65;;
51358;SDS011;37448;51.588;7.248;2022-11-02T14:05:59;11.93;;;1.83;;
51358;SDS011;37448;51.588;7.248;2022-11-02T14:25:06;15.07;;;2.08;;
51358;SDS011;37448;51.588;7.248;2022-11-02T14:53:48;14.02;;;1.80;;
51358;SDS011;37448;51.588;7.248;2022-11-02T14:56:45;12.00;;;2.47;;
51358;SDS011;37448;51.588;7.248;2022-11-02T14:59:26;15.98;;;2.50;;
51358;SDS011;37448;51.588;7.248;2022-11-02T15:02:02;11.07;;;1.90;;
51358;SDS011;37448;51.588;7.248;2022-11-02T15:04:52;13.85;;;2.40;;
51358;SDS011;37448;51.588;7.248;2022-11-02T15:07:34;13.38;;;2.05;;
51358;SDS011;37448;51.588;7.248;2022-11-02T15:12:46;12.57;;;2.33;;
51358;SDS011;37448;51.588;7.248;2022-11-02T15:15:33;10.77;;;1.65;;
51358;SDS011;37448;51.588;7.248;2022-11-02T15:23:44;11.80;;;2.47;;
51358;SDS011;37448;51.588;7.248;2022-11-02T15:29:30;10.30;;;1.90;;
51358;SDS011;37448;51.588;7.248;2022-11-02T15:32:07;10.85;;;1.90;;
51358;SDS011;37448;51.588;7.248;2022-11-02T15:34:46;13.35;;;1.63;;
51358;SDS011;37448;51.588;7.248;2022-11-02T15:37:20;8.57;;;1.70;;
51358;SDS011;37448;51.588;7.248;2022-11-02T15:39:53;13.10;;;2.00;;
51358;SDS011;37448;51.588;7.248;2022-11-02T15:48:41;12.15;;;2.20;;
51358;SDS011;37448;51.588;7.248;2022-11-02T15:51:32;8.70;;;1.75;;
51358;SDS011;37448;51.588;7.248;2022-11-02T15:54:12;10.57;;;2.10;;
51358;SDS011;37448;51.588;7.248;2022-11-02T15:57:12;14.35;;;2.35;;
51358;SDS011;37448;51.588;7.248;2022-11-02T16:00:13;15.02;;;2.55;;
51358;SDS011;37448;51.588;7.248;2022-11-02T16:02:48;24.38;;;2.83;;
51358;SDS011;37448;51.588;7.248;2022-11-02T16:05:26;15.43;;;2.15;;
51358;SDS011;37448;51.588;7.248;2022-11-02T16:08:00;9.82;;;2.72;;
51358;SDS011;37448;51.588;7.248;2022-11-02T16:10:32;13.70;;;2.28;;
51358;SDS011;37448;51.588;7.248;2022-11-02T16:15:37;11.27;;;2.13;;
51358;SDS011;37448;51.588;7.248;2022-11-02T16:18:24;12.70;;;2.03;;
51358;SDS011;37448;51.588;7.248;2022-11-02T16:20:59;11.57;;;2.33;;
51358;SDS011;37448;51.588;7.248;2022-11-02T16:23:34;13.77;;;2.08;;
51358;SDS011;37448;51.588;7.248;2022-11-02T16:26:09;16.17;;;2.60;;
51358;SDS011;37448;51.588;7.248;2022-11-02T16:28:49;21.75;;;7.60;;
51358;SDS011;37448;51.588;7.248;2022-11-02T16:31:24;47.00;;;27.33;;
51358;SDS011;37448;51.588;7.248;2022-11-02T16:34:19;26.80;;;13.15;;
51358;SDS011;37448;51.588;7.248;2022-11-02T16:36:51;23.83;;;11.93;;
51358;SDS011;37448;51.588;7.248;2022-11-02T16:39:31;22.98;;;9.23;;
51358;SDS011;37448;51.588;7.248;2022-11-02T16:42:07;19.27;;;8.20;;
51358;SDS011;37448;51.588;7.248;2022-11-02T16:44:52;18.30;;;6.32;;
51358;SDS011;37448;51.588;7.248;2022-11-02T16:47:35;14.40;;;3.75;;
51358;SDS011;37448;51.588;7.248;2022-11-02T16:50:19;17.52;;;3.95;;
51358;SDS011;37448;51.588;7.248;2022-11-02T16:52:52;11.00;;;3.10;;
51358;SDS011;37448;51.588;7.248;2022-11-02T16:55:40;12.45;;;3.63;;
51358;SDS011;37448;51.588;7.248;2022-11-02T16:58:15;17.73;;;5.00;;
51358;SDS011;37448;51.588;7.248;2022-11-02T17:00:56;18.17;;;5.00;;
51358;SDS011;37448;51.588;7.248;2022-11-02T17:03:30;16.75;;;5.70;;
51358;SDS011;37448;51.588;7.248;2022-11-02T17:06:04;14.98;;;4.07;;
51358;SDS011;37448;51.588;7.248;2022-11-02T17:08:36;20.42;;;5.07;;
51358;SDS011;37448;51.588;7.248;2022-11-02T17:11:13;13.57;;;3.65;;
51358;SDS011;37448;51.588;7.248;2022-11-02T17:13:49;18.30;;;3.95;;
51358;SDS011;37448;51.588;7.248;2022-11-02T17:16:22;17.00;;;4.30;;
51358;SDS011;37448;51.588;7.248;2022-11-02T17:18:52;15.52;;;5.35;;
51358;SDS011;37448;51.588;7.248;2022-11-02T17:21:24;14.57;;;7.15;;
51358;SDS011;37448;51.588;7.248;2022-11-02T17:23:57;17.38;;;5.25;;
51358;SDS011;37448;51.588;7.248;2022-11-02T17:26:29;22.42;;;5.07;;
51358;SDS011;37448;51.588;7.248;2022-11-02T17:31:56;48.55;;;27.70;;
51358;SDS011;37448;51.588;7.248;2022-11-02T17:34:29;46.55;;;27.88;;
51358;SDS011;37448;51.588;7.248;2022-11-02T17:37:00;29.83;;;16.13;;
51358;SDS011;37448;51.588;7.248;2022-11-02T17:39:31;25.98;;;8.13;;
51358;SDS011;37448;51.588;7.248;2022-11-02T17:42:02;13.80;;;5.07;;
51358;SDS011;37448;51.588;7.248;2022-11-02T17:44:53;14.73;;;3.30;;
51358;SDS011;37448;51.588;7.248;2022-11-02T17:47:23;15.80;;;3.85;;
51358;SDS011;37448;51.588;7.248;2022-11-02T17:49:54;14.73;;;3.88;;
51358;SDS011;37448;51.588;7.248;2022-11-02T17:52:24;15.52;;;3.88;;
51358;SDS011;37448;51.588;7.248;2022-11-02T17:54:54;13.07;;;2.90;;
51358;SDS011;37448;51.588;7.248;2022-11-02T17:57:25;13.63;;;3.13;;
51358;SDS011;37448;51.588;7.248;2022-11-02T17:59:56;13.20;;;3.35;;
51358;SDS011;37448;51.588;7.248;2022-11-02T18:02:26;11.77;;;2.95;;
51358;SDS011;37448;51.588;7.248;2022-11-02T18:04:56;15.25;;;2.58;;
51358;SDS011;37448;51.588;7.248;2022-11-02T18:07:27;13.07;;;2.72;;
51358;SDS011;37448;51.588;7.248;2022-11-02T18:09:57;14.20;;;2.42;;
51358;SDS011;37448;51.588;7.248;2022-11-02T18:12:27;11.40;;;4.05;;
51358;SDS011;37448;51.588;7.248;2022-11-02T18:14:58;11.45;;;2.33;;
51358;SDS011;37448;51.588;7.248;2022-11-02T18:17:28;11.30;;;2.45;;
51358;SDS011;37448;51.588;7.248;2022-11-02T18:19:58;22.77;;;3.97;;